createdAt,value
2023-02-11T00:27:21.718Z,13.35
2023-02-11T00:29:49.115Z,17.67
2023-02-11T00:32:16.427Z,14.15
2023-02-11T00:34:43.794Z,15.27
2023-02-11T00:37:12.346Z,12.68
2023-02-11T00:39:42.337Z,11.00
2023-02-11T00:42:16.597Z,13.40
2023-02-11T00:44:45.706Z,15.30
2023-02-11T00:47:13.102Z,13.85
2023-02-11T00:49:40.571Z,11.48
2023-02-11T00:52:07.975Z,13.63
2023-02-11T00:54:35.384Z,10.02
2023-02-11T00:57:02.892Z,12.40
2023-02-11T00:59:31.514Z,13.45
2023-02-11T01:01:58.762Z,11.35
2023-02-11T01:04:27.556Z,13.10
2023-02-11T01:06:54.824Z,11.38
2023-02-11T01:09:23.260Z,12.75
2023-02-11T01:11:50.552Z,15.27
2023-02-11T01:14:18.216Z,13.25
2023-02-11T01:16:45.478Z,12.48
2023-02-11T01:19:13.857Z,14.13
2023-02-11T01:21:42.388Z,16.00
2023-02-11T01:24:09.713Z,13.18
2023-02-11T01:26:37.099Z,12.35
2023-02-11T01:29:04.643Z,10.07
2023-02-11T01:31:32.793Z,9.65
2023-02-11T01:34:01.463Z,9.55
2023-02-11T01:36:29.540Z,11.18
2023-02-11T01:38:57.077Z,11.45
2023-02-11T01:41:24.446Z,14.63
2023-02-11T01:43:51.752Z,11.18
2023-02-11T01:46:26.763Z,10.20
2023-02-11T01:49:02.722Z,10.02
2023-02-11T01:51:44.910Z,10.90
2023-02-11T01:54:35.621Z,14.40
2023-02-11T01:57:23.389Z,15.50
2023-02-11T02:00:05.700Z,13.88
2023-02-11T02:02:46.079Z,15.40
2023-02-11T02:05:35.288Z,12.80
2023-02-11T02:08:29.608Z,12.68
2023-02-11T02:11:00.711Z,15.07
2023-02-11T02:16:11.600Z,10.77
2023-02-11T02:19:03.862Z,10.48
2023-02-11T02:21:31.190Z,12.02
2023-02-11T02:24:22.154Z,20.00
2023-02-11T02:27:20.521Z,13.88
2023-02-11T02:30:12.730Z,11.88
2023-02-11T02:32:52.866Z,11.38
2023-02-11T02:35:38.753Z,10.40
2023-02-11T02:38:08.993Z,10.23
2023-02-11T02:40:46.872Z,9.18
2023-02-11T02:43:14.670Z,8.98
2023-02-11T02:45:42.060Z,12.85
2023-02-11T02:48:27.429Z,11.35
2023-02-11T02:51:33.532Z,10.98
2023-02-11T02:54:26.100Z,11.32
2023-02-11T02:57:05.313Z,12.27
2023-02-11T02:59:50.876Z,11.30
2023-02-11T03:02:52.305Z,12.88
2023-02-11T03:05:24.387Z,12.88
2023-02-11T03:08:03.107Z,12.13
2023-02-11T03:10:34.712Z,11.45
2023-02-11T03:13:03.878Z,10.65
2023-02-11T03:15:37.780Z,9.43
2023-02-11T03:18:07.616Z,10.95
2023-02-11T03:20:37.768Z,9.20
2023-02-11T03:23:37.754Z,10.70
2023-02-11T03:26:17.305Z,10.55
2023-02-11T03:29:04.055Z,13.25
2023-02-11T03:31:42.134Z,12.00
2023-02-11T03:34:32.879Z,12.30
2023-02-11T03:37:06.699Z,10.07
2023-02-11T03:39:39.297Z,12.40
2023-02-11T03:42:13.374Z,8.98
2023-02-11T03:44:50.607Z,9.77
2023-02-11T03:47:23.938Z,11.52
2023-02-11T03:49:54.795Z,16.02
2023-02-11T03:52:23.569Z,7.82
2023-02-11T03:54:56.506Z,10.77
2023-02-11T03:57:23.961Z,8.85
2023-02-11T03:59:54.215Z,10.57
2023-02-11T04:02:24.658Z,7.80
2023-02-11T04:04:52.161Z,12.68
2023-02-11T04:07:19.545Z,13.02
2023-02-11T04:09:47.084Z,9.15
2023-02-11T04:12:14.648Z,10.38
2023-02-11T04:14:42.187Z,13.35
2023-02-11T04:17:09.562Z,11.65
2023-02-11T04:19:37.143Z,8.75
2023-02-11T04:22:04.518Z,8.23
2023-02-11T04:24:32.252Z,8.70
2023-02-11T04:26:59.861Z,10.23
2023-02-11T04:29:28.416Z,14.18
2023-02-11T04:31:56.408Z,8.73
2023-02-11T04:34:24.634Z,10.57
2023-02-11T04:36:51.999Z,12.93
2023-02-11T04:39:19.685Z,12.23
2023-02-11T04:41:47.232Z,8.82
2023-02-11T04:44:14.427Z,11.13
2023-02-11T04:46:41.844Z,7.63
2023-02-11T04:49:10.347Z,10.75
2023-02-11T04:51:37.545Z,10.30
2023-02-11T04:54:04.891Z,11.27
2023-02-11T04:56:32.285Z,7.43
2023-02-11T04:58:59.650Z,8.57
2023-02-11T05:01:27.088Z,9.85
2023-02-11T05:03:54.473Z,11.05
2023-02-11T05:06:21.862Z,6.97
2023-02-11T05:08:49.372Z,7.35
2023-02-11T05:11:18.947Z,9.82
2023-02-11T05:13:47.448Z,10.60
2023-02-11T05:16:16.271Z,12.18
2023-02-11T05:18:45.170Z,12.63
2023-02-11T05:21:18.328Z,10.65
2023-02-11T05:23:46.315Z,12.30
2023-02-11T05:26:13.958Z,13.52
2023-02-11T05:28:43.392Z,13.73
2023-02-11T05:31:11.667Z,11.23
2023-02-11T05:33:39.058Z,9.73
2023-02-11T05:36:09.128Z,8.90
2023-02-11T05:38:38.224Z,14.40
2023-02-11T05:41:06.611Z,10.27
2023-02-11T05:43:35.466Z,13.48
2023-02-11T05:46:04.383Z,9.38
2023-02-11T05:48:31.922Z,11.15
2023-02-11T05:50:59.162Z,11.38
2023-02-11T05:53:26.637Z,8.02
2023-02-11T05:55:53.979Z,11.80
2023-02-11T05:58:21.442Z,9.65
2023-02-11T06:00:48.873Z,12.80
2023-02-11T06:03:16.393Z,15.40
2023-02-11T06:05:44.846Z,17.33
2023-02-11T06:08:12.950Z,10.38
2023-02-11T06:10:43.172Z,16.92
2023-02-11T06:13:10.625Z,16.83
2023-02-11T06:15:38.139Z,12.35
2023-02-11T06:18:09.810Z,12.40
2023-02-11T06:20:37.651Z,13.30
2023-02-11T06:23:05.960Z,14.40
2023-02-11T06:25:33.392Z,13.23
2023-02-11T06:28:00.821Z,13.73
2023-02-11T06:30:28.274Z,11.68
2023-02-11T06:32:55.602Z,13.20
2023-02-11T06:35:23.218Z,8.70
2023-02-11T06:37:50.740Z,13.45
2023-02-11T06:40:18.263Z,11.77
2023-02-11T06:42:45.569Z,9.45
2023-02-11T06:45:13.592Z,10.90
2023-02-11T06:47:41.688Z,13.73
2023-02-11T06:50:13.252Z,12.25
2023-02-11T06:52:40.773Z,18.13
2023-02-11T06:55:08.526Z,13.02
2023-02-11T06:57:35.781Z,13.27
2023-02-11T07:00:03.502Z,15.65
2023-02-11T07:02:31.021Z,16.10
2023-02-11T07:04:58.392Z,12.63
2023-02-11T07:07:25.667Z,14.82
2023-02-11T07:09:52.901Z,16.15
2023-02-11T07:12:20.567Z,16.70
2023-02-11T07:14:47.768Z,14.48
2023-02-11T07:17:15.301Z,13.13
2023-02-11T07:19:42.793Z,16.83
2023-02-11T07:22:10.047Z,16.23
2023-02-11T07:24:37.262Z,20.55
2023-02-11T07:27:04.863Z,21.50
2023-02-11T07:29:32.320Z,13.90
2023-02-11T07:31:59.702Z,16.60
2023-02-11T07:34:27.224Z,18.80
2023-02-11T07:36:54.456Z,15.57
2023-02-11T07:39:22.722Z,19.65
2023-02-11T07:41:50.431Z,20.52
2023-02-11T07:44:17.902Z,20.48
2023-02-11T07:46:45.737Z,23.58
2023-02-11T07:49:13.221Z,23.70
2023-02-11T07:51:40.508Z,20.02
2023-02-11T07:54:08.016Z,16.08
2023-02-11T07:56:35.536Z,16.75
2023-02-11T07:59:03.850Z,15.57
2023-02-11T08:01:31.458Z,12.43
2023-02-11T08:04:00.610Z,16.80
2023-02-11T08:06:33.093Z,16.70
2023-02-11T08:09:07.157Z,14.48
2023-02-11T08:11:34.827Z,16.05
2023-02-11T08:14:02.558Z,20.95
2023-02-11T08:16:34.290Z,22.08
2023-02-11T08:19:04.671Z,12.48
2023-02-11T08:21:31.930Z,22.10
2023-02-11T08:23:59.274Z,12.63
2023-02-11T08:26:29.168Z,14.73
2023-02-11T08:28:58.360Z,13.13
2023-02-11T08:31:33.736Z,11.32
2023-02-11T08:34:02.582Z,10.68
2023-02-11T08:36:36.273Z,12.82
2023-02-11T08:39:18.655Z,10.65
2023-02-11T08:41:53.334Z,10.13
2023-02-11T08:44:21.655Z,12.57
2023-02-11T08:46:50.224Z,9.55
2023-02-11T08:49:17.710Z,10.80
2023-02-11T08:51:45.620Z,12.45
2023-02-11T08:54:13.320Z,12.07
2023-02-11T08:56:40.743Z,8.70
2023-02-11T08:59:11.013Z,13.52
2023-02-11T09:01:38.483Z,9.15
2023-02-11T09:04:05.816Z,10.05
2023-02-11T09:06:33.042Z,12.38
2023-02-11T09:09:00.445Z,12.38
2023-02-11T09:11:35.079Z,9.90
2023-02-11T09:14:04.026Z,12.48
2023-02-11T09:16:34.237Z,8.38
2023-02-11T09:19:03.864Z,11.55
2023-02-11T09:21:31.374Z,10.15
2023-02-11T09:23:58.596Z,12.50
2023-02-11T09:26:31.343Z,11.15
2023-02-11T09:28:59.351Z,8.20
2023-02-11T09:31:29.376Z,11.05
2023-02-11T09:33:59.690Z,10.23
2023-02-11T09:36:37.541Z,11.82
2023-02-11T09:39:09.445Z,9.73
2023-02-11T09:42:01.119Z,9.05
2023-02-11T09:44:32.518Z,11.07
2023-02-11T09:47:06.330Z,18.27
2023-02-11T09:49:49.182Z,10.02
2023-02-11T09:52:36.388Z,8.35
2023-02-11T09:55:15.301Z,13.43
2023-02-11T09:57:42.630Z,10.80
2023-02-11T10:00:23.530Z,11.88
2023-02-11T10:03:01.151Z,11.13
2023-02-11T10:05:50.343Z,10.77
2023-02-11T10:08:24.376Z,9.05
2023-02-11T10:11:09.206Z,12.10
2023-02-11T10:14:03.043Z,14.10
2023-02-11T10:16:45.411Z,14.75
2023-02-11T10:19:42.616Z,13.85
2023-02-11T10:22:24.988Z,15.48
2023-02-11T10:24:58.536Z,17.92
2023-02-11T10:27:33.622Z,13.63
2023-02-11T10:30:19.525Z,15.50
2023-02-11T10:32:59.832Z,16.10
2023-02-11T10:35:27.465Z,16.95
2023-02-11T10:37:58.308Z,17.65
2023-02-11T10:40:28.737Z,17.13
2023-02-11T10:42:59.986Z,17.58
2023-02-11T10:45:35.135Z,20.67
2023-02-11T10:48:06.520Z,16.73
2023-02-11T10:50:35.576Z,19.52
2023-02-11T10:53:13.680Z,18.50
2023-02-11T10:55:54.228Z,17.95
2023-02-11T10:58:31.996Z,20.45
2023-02-11T11:01:01.662Z,21.38
2023-02-11T11:03:40.352Z,19.35
2023-02-11T11:06:10.075Z,20.27
2023-02-11T11:08:44.743Z,20.77
2023-02-11T11:11:15.296Z,18.60
2023-02-11T11:13:53.557Z,16.33
2023-02-11T11:16:30.950Z,20.48
2023-02-11T11:19:07.522Z,24.00
2023-02-11T11:21:54.948Z,20.55
2023-02-11T11:24:30.144Z,16.05
2023-02-11T11:27:01.210Z,18.35
2023-02-11T11:29:39.702Z,17.60
2023-02-11T11:32:37.401Z,19.85
2023-02-11T11:35:21.193Z,22.02
2023-02-11T11:37:54.020Z,17.80
2023-02-11T11:40:31.628Z,19.05
2023-02-11T11:43:14.453Z,17.55
2023-02-11T11:46:02.983Z,18.67
2023-02-11T11:48:43.247Z,19.17
2023-02-11T11:51:12.376Z,17.25
2023-02-11T11:53:46.025Z,21.92
2023-02-11T11:56:23.289Z,24.75
2023-02-11T11:58:51.199Z,15.95
2023-02-11T12:01:45.178Z,14.15
2023-02-11T12:04:34.686Z,17.27
2023-02-11T12:07:17.463Z,17.33
2023-02-11T12:10:00.135Z,18.35
2023-02-11T12:12:40.019Z,16.73
2023-02-11T12:15:41.624Z,20.33
2023-02-11T12:18:39.071Z,19.35
2023-02-11T12:21:21.525Z,15.30
2023-02-11T12:24:16.947Z,15.88
2023-02-11T12:26:47.834Z,16.50
2023-02-11T12:29:34.196Z,15.23
2023-02-11T12:32:17.907Z,16.33
2023-02-11T12:35:15.016Z,16.17
2023-02-11T12:38:18.909Z,14.43
2023-02-11T12:41:11.904Z,14.48
2023-02-11T12:43:42.398Z,18.15
2023-02-11T12:46:33.709Z,15.85
2023-02-11T12:49:26.545Z,19.05
2023-02-11T12:52:40.066Z,19.05
2023-02-11T12:55:38.530Z,17.88
2023-02-11T12:58:13.542Z,14.25
2023-02-11T13:00:45.806Z,13.68
2023-02-11T13:03:19.284Z,14.10
2023-02-11T13:05:52.967Z,14.95
2023-02-11T13:08:37.746Z,13.02
2023-02-11T13:11:17.762Z,14.50
2023-02-11T13:14:12.777Z,13.45
2023-02-11T13:16:46.725Z,16.55
2023-02-11T13:19:23.903Z,13.15
2023-02-11T13:22:06.286Z,13.18
2023-02-11T13:25:04.022Z,14.30
2023-02-11T13:27:50.856Z,16.15
2023-02-11T13:30:36.995Z,15.93
2023-02-11T13:33:17.013Z,16.45
2023-02-11T13:35:57.880Z,16.05
2023-02-11T13:38:32.594Z,15.32
2023-02-11T13:41:28.006Z,15.85
2023-02-11T13:44:23.972Z,12.52
2023-02-11T13:46:59.343Z,13.07
2023-02-11T13:49:36.374Z,12.73
2023-02-11T13:52:18.081Z,10.00
2023-02-11T13:57:23.792Z,12.27
2023-02-11T13:59:55.594Z,11.23
2023-02-11T14:02:54.507Z,12.32
2023-02-11T14:05:44.853Z,11.13
2023-02-11T14:08:31.984Z,12.88
2023-02-11T14:11:11.487Z,15.18
2023-02-11T14:13:55.438Z,13.55
2023-02-11T14:16:37.366Z,14.25
2023-02-11T14:19:06.870Z,13.95
2023-02-11T14:21:41.165Z,13.35
2023-02-11T14:24:13.551Z,14.73
2023-02-11T14:26:53.582Z,13.95
2023-02-11T14:29:38.332Z,12.90
2023-02-11T14:32:10.330Z,13.70
2023-02-11T14:34:52.104Z,13.10
2023-02-11T14:37:50.336Z,16.05
2023-02-11T14:40:30.938Z,12.80
2023-02-11T14:43:12.529Z,14.40
2023-02-11T14:45:50.384Z,15.10
2023-02-11T14:48:20.740Z,13.38
2023-02-11T14:50:59.076Z,17.38
2023-02-11T14:53:31.702Z,14.60
2023-02-11T14:55:59.880Z,15.95
2023-02-11T14:58:32.720Z,18.35
2023-02-11T15:01:07.032Z,17.95
2023-02-11T15:03:39.117Z,15.45
2023-02-11T15:06:13.567Z,19.10
2023-02-11T15:08:46.125Z,16.38
2023-02-11T15:11:17.332Z,15.60
2023-02-11T15:13:49.902Z,11.27
2023-02-11T15:16:25.047Z,16.33
2023-02-11T15:18:57.349Z,12.95
2023-02-11T15:21:31.029Z,15.48
2023-02-11T15:24:26.789Z,15.95
2023-02-11T15:27:16.293Z,11.85
2023-02-11T15:29:49.745Z,12.40
2023-02-11T15:32:20.023Z,11.90
2023-02-11T15:34:50.229Z,10.65
2023-02-11T15:37:32.624Z,11.68
2023-02-11T15:40:35.426Z,12.43
2023-02-11T15:43:06.626Z,9.13
2023-02-11T15:45:48.482Z,13.55
2023-02-11T15:48:37.583Z,10.25
2023-02-11T15:51:39.307Z,8.40
2023-02-11T15:54:21.992Z,10.50
2023-02-11T15:56:53.259Z,10.75
2023-02-11T15:59:38.800Z,17.90
2023-02-11T16:02:20.016Z,10.75
2023-02-11T16:04:55.297Z,12.18
2023-02-11T16:07:51.549Z,13.60
2023-02-11T16:10:24.349Z,14.57
2023-02-11T16:13:09.357Z,9.52
2023-02-11T16:16:03.138Z,12.82
2023-02-11T16:18:38.710Z,11.48
2023-02-11T16:21:16.765Z,14.88
2023-02-11T16:23:51.834Z,13.52
2023-02-11T16:26:47.324Z,15.75
2023-02-11T16:29:27.808Z,15.98
2023-02-11T16:32:11.792Z,19.00
2023-02-11T16:34:40.175Z,17.67
2023-02-11T16:37:08.697Z,14.57
2023-02-11T16:39:37.291Z,13.25
2023-02-11T16:42:07.638Z,14.48
2023-02-11T16:44:36.394Z,16.23
2023-02-11T16:47:07.889Z,14.05
2023-02-11T16:52:14.098Z,13.50
2023-02-11T16:54:42.536Z,14.52
2023-02-11T16:57:20.654Z,16.85
2023-02-11T16:59:49.630Z,12.57
2023-02-11T17:02:23.900Z,15.48
2023-02-11T17:04:54.706Z,13.32
2023-02-11T17:07:23.148Z,15.10
2023-02-11T17:09:52.782Z,13.52
2023-02-11T17:12:23.244Z,13.73
2023-02-11T17:14:51.902Z,14.98
2023-02-11T17:17:20.404Z,18.02
2023-02-11T17:19:48.523Z,16.15
2023-02-11T17:22:16.816Z,16.30
2023-02-11T17:24:45.192Z,19.48
2023-02-11T17:27:15.879Z,21.58
2023-02-11T17:29:44.230Z,14.02
2023-02-11T17:32:12.646Z,15.90
2023-02-11T17:34:41.495Z,15.95
2023-02-11T17:37:10.327Z,20.10
2023-02-11T17:39:41.703Z,16.42
2023-02-11T17:42:12.612Z,22.38
2023-02-11T17:44:40.818Z,23.05
2023-02-11T17:47:08.841Z,18.27
2023-02-11T17:49:37.084Z,17.00
2023-02-11T17:52:05.747Z,16.45
2023-02-11T17:54:34.432Z,15.70
2023-02-11T17:57:03.807Z,13.82
2023-02-11T17:59:35.531Z,14.98
2023-02-11T18:02:05.032Z,12.70
2023-02-11T18:04:35.589Z,14.23
2023-02-11T18:07:04.413Z,14.00
2023-02-11T18:09:36.391Z,14.25
2023-02-11T18:12:07.784Z,13.90
2023-02-11T18:14:39.978Z,18.73
2023-02-11T18:17:11.682Z,14.88
2023-02-11T18:19:39.529Z,16.60
2023-02-11T18:22:09.867Z,33.97
2023-02-11T18:24:37.908Z,28.15
2023-02-11T18:27:06.068Z,18.25
2023-02-11T18:29:34.569Z,31.15
2023-02-11T18:32:02.783Z,16.10
2023-02-11T18:34:33.770Z,14.68
2023-02-11T18:37:02.389Z,15.18
2023-02-11T18:39:33.032Z,13.07
2023-02-11T18:42:01.084Z,12.63
2023-02-11T18:44:30.322Z,10.30
2023-02-11T18:46:58.479Z,14.32
2023-02-11T18:49:28.246Z,16.35
2023-02-11T18:51:59.177Z,25.35
2023-02-11T18:54:27.908Z,23.85
2023-02-11T18:56:56.327Z,24.05
2023-02-11T18:59:27.200Z,21.15
2023-02-11T19:01:55.898Z,21.00
2023-02-11T19:04:23.484Z,20.25
2023-02-11T19:09:35.149Z,19.73
2023-02-11T19:12:05.350Z,20.10
2023-02-11T19:14:34.995Z,20.52
2023-02-11T19:17:08.622Z,17.15
2023-02-11T19:19:37.833Z,20.20
2023-02-11T19:22:09.991Z,16.15
2023-02-11T19:24:40.828Z,15.55
2023-02-11T19:27:09.616Z,14.25
2023-02-11T19:29:38.472Z,13.38
2023-02-11T19:32:06.995Z,14.25
2023-02-11T19:34:41.749Z,24.02
2023-02-11T19:37:13.389Z,18.35
2023-02-11T19:39:44.789Z,15.90
2023-02-11T19:42:14.330Z,16.67
2023-02-11T19:44:43.010Z,15.18
2023-02-11T19:47:13.995Z,15.90
2023-02-11T19:49:42.230Z,16.83
2023-02-11T19:52:11.954Z,16.20
2023-02-11T19:54:40.570Z,20.50
2023-02-11T19:57:09.493Z,14.65
2023-02-11T19:59:39.567Z,16.15
2023-02-11T20:02:08.747Z,14.68
2023-02-11T20:04:37.807Z,15.77
2023-02-11T20:07:06.102Z,14.25
2023-02-11T20:09:34.828Z,12.73
2023-02-11T20:12:03.601Z,15.73
2023-02-11T20:14:33.079Z,14.85
2023-02-11T20:17:01.266Z,17.00
2023-02-11T20:19:31.511Z,20.80
2023-02-11T20:22:00.026Z,18.70
2023-02-11T20:24:28.280Z,14.63
2023-02-11T20:26:56.906Z,13.85
2023-02-11T20:29:34.080Z,17.40
2023-02-11T20:32:05.009Z,13.48
2023-02-11T20:34:36.425Z,14.18
2023-02-11T20:39:35.874Z,15.40
2023-02-11T20:42:04.798Z,11.73
2023-02-11T20:44:34.821Z,14.55
2023-02-11T20:47:03.305Z,10.93
2023-02-11T20:49:32.122Z,11.73
2023-02-11T20:52:03.800Z,15.32
2023-02-11T20:57:01.210Z,11.18
2023-02-11T20:59:29.566Z,12.75
2023-02-11T21:01:58.181Z,10.15
2023-02-11T21:04:31.319Z,9.05
2023-02-11T21:07:03.023Z,11.77
2023-02-11T21:09:35.023Z,12.25
2023-02-11T21:12:04.113Z,11.50
2023-02-11T21:14:34.780Z,10.52
2023-02-11T21:17:04.328Z,9.10
2023-02-11T21:19:32.644Z,8.23
2023-02-11T21:22:03.499Z,14.60
2023-02-11T21:24:31.813Z,10.63
2023-02-11T21:27:00.231Z,10.63
2023-02-11T21:29:27.988Z,13.52
2023-02-11T21:31:58.282Z,13.63
2023-02-11T21:34:27.576Z,11.75
2023-02-11T21:36:55.654Z,11.13
2023-02-11T21:39:23.965Z,11.65
2023-02-11T21:41:54.019Z,9.05
2023-02-11T21:44:23.121Z,11.80
2023-02-11T21:46:50.943Z,10.45
2023-02-11T21:49:20.422Z,14.85
2023-02-11T21:51:48.153Z,10.23
2023-02-11T21:54:18.955Z,9.55
2023-02-11T21:56:47.153Z,11.30
2023-02-11T21:59:18.164Z,10.15
2023-02-11T22:01:46.577Z,9.73
2023-02-11T22:04:14.598Z,10.70
2023-02-11T22:06:42.238Z,9.07
2023-02-11T22:09:11.800Z,10.77
2023-02-11T22:11:39.882Z,10.77
2023-02-11T22:14:08.345Z,10.07
2023-02-11T22:16:35.932Z,9.15
2023-02-11T22:19:03.982Z,11.27
2023-02-11T22:21:31.900Z,9.32
2023-02-11T22:23:59.241Z,10.77
2023-02-11T22:26:28.134Z,10.52
2023-02-11T22:28:56.137Z,10.90
2023-02-11T22:31:26.367Z,10.55
2023-02-11T22:33:54.185Z,9.73
2023-02-11T22:36:29.925Z,11.82
2023-02-11T22:39:07.332Z,9.07
2023-02-11T22:41:34.894Z,11.18
2023-02-11T22:44:02.257Z,8.50
2023-02-11T22:46:29.605Z,8.88
2023-02-11T22:48:57.006Z,9.48
2023-02-11T22:51:29.514Z,9.95
2023-02-11T22:53:59.897Z,7.45
2023-02-11T22:56:28.705Z,8.50
2023-02-11T22:59:01.436Z,8.77
2023-02-11T23:01:30.287Z,7.35
2023-02-11T23:04:00.128Z,8.60
2023-02-11T23:06:27.391Z,9.95
2023-02-11T23:08:55.202Z,7.65
2023-02-11T23:11:25.639Z,6.80
2023-02-11T23:13:54.743Z,10.10
2023-02-11T23:16:24.841Z,8.52
2023-02-11T23:18:54.759Z,6.45
2023-02-11T23:21:28.043Z,9.52
2023-02-11T23:24:01.629Z,10.38
2023-02-11T23:26:29.540Z,10.18
2023-02-11T23:28:58.311Z,11.88
2023-02-11T23:31:34.672Z,10.80
2023-02-11T23:34:02.485Z,10.57
2023-02-11T23:36:31.624Z,12.70
2023-02-11T23:38:58.866Z,13.23
2023-02-11T23:41:26.527Z,12.93
2023-02-11T23:43:55.932Z,11.75
2023-02-11T23:46:24.469Z,13.98
2023-02-11T23:48:52.667Z,16.10
2023-02-11T23:51:20.608Z,13.05
2023-02-11T23:53:56.588Z,15.95
2023-02-11T23:56:26.410Z,13.32
2023-02-11T23:58:56.860Z,13.40
